Time;durP1;ratioP1;P1;durP2;ratioP2;P2;SDS_P1;SDS_P2;PMS_P1;PMS_P2;Temp;Humidity;BMP_temperature;BMP_pressure;BME280_temperature;BME280_humidity;BME280_pressure;Samples;Min_cycle;Max_cycle;Signal;HPM_P1;HPM_P2
2022/10/05 00:00:46;;;;;;;1.88;1.30;;;15.60;80.50;;;;;;4917694;29;20487;-75
2022/10/05 00:03:12;;;;;;;3.03;1.58;;;15.60;80.60;;;;;;4917772;29;20028;-75
2022/10/05 00:05:38;;;;;;;2.80;1.30;;;15.60;80.60;;;;;;4918231;29;20043;-75
2022/10/05 00:08:14;;;;;;;2.25;1.40;;;15.50;80.50;;;;;;4915790;29;20459;-77
2022/10/05 00:10:41;;;;;;;2.00;1.40;;;15.50;80.50;;;;;;4917168;29;20115;-76
2022/10/05 00:13:14;;;;;;;1.50;1.10;;;15.50;80.60;;;;;;4918091;29;20099;-77
2022/10/05 00:15:39;;;;;;;2.10;1.08;;;15.50;80.60;;;;;;4916374;29;20511;-76
2022/10/05 00:18:15;;;;;;;1.98;1.20;;;15.50;80.60;;;;;;4915678;29;20083;-76
2022/10/05 00:20:45;;;;;;;1.63;1.15;;;15.50;80.70;;;;;;4918131;29;20044;-77
2022/10/05 00:23:17;;;;;;;1.70;1.20;;;15.60;80.70;;;;;;4900376;29;20039;-77
2022/10/05 00:25:44;;;;;;;2.17;1.33;;;15.50;80.80;;;;;;4918232;29;20055;-76
2022/10/05 00:28:21;;;;;;;1.38;1.15;;;15.50;80.80;;;;;;4918861;29;20051;-78
2022/10/05 00:30:47;;;;;;;2.75;1.50;;;15.50;80.80;;;;;;4899621;29;20072;-77
2022/10/05 00:33:13;;;;;;;1.75;1.23;;;15.50;80.80;;;;;;4915129;29;20043;-76
2022/10/05 00:35:39;;;;;;;2.05;1.15;;;15.40;80.80;;;;;;4917757;29;20044;-76
2022/10/05 00:38:05;;;;;;;1.27;1.13;;;15.40;80.90;;;;;;4917351;29;20483;-76
2022/10/05 00:40:39;;;;;;;2.25;1.13;;;15.50;81.00;;;;;;4917360;29;20100;-74
2022/10/05 00:43:27;;;;;;;1.40;1.10;;;15.40;81.00;;;;;;4917533;29;20046;-75
2022/10/05 00:46:09;;;;;;;0.93;0.90;;;15.40;81.00;;;;;;4917078;29;20067;-75
2022/10/05 00:49:02;;;;;;;1.73;0.93;;;15.50;81.10;;;;;;4917050;29;20410;-76
2022/10/05 00:51:32;;;;;;;1.08;0.90;;;15.50;81.20;;;;;;4916953;29;20047;-75
2022/10/05 00:54:11;;;;;;;1.27;0.80;;;15.40;81.10;;;;;;4917327;29;20064;-75
2022/10/05 00:56:59;;;;;;;1.20;1.10;;;15.40;81.10;;;;;;4917282;29;20036;-75
2022/10/05 00:59:45;;;;;;;1.10;1.00;;;15.40;81.10;;;;;;4916857;29;20115;-75
2022/10/05 01:02:21;;;;;;;1.52;1.10;;;15.40;81.10;;;;;;4917126;29;20483;-75
2022/10/05 01:04:58;;;;;;;1.73;1.20;;;15.40;81.20;;;;;;4917500;29;20487;-75
2022/10/05 01:07:49;;;;;;;1.58;1.20;;;15.40;81.20;;;;;;4916740;29;20123;-75
2022/10/05 01:10:31;;;;;;;1.88;1.10;;;15.30;81.20;;;;;;4915563;29;20070;-75
2022/10/05 01:13:18;;;;;;;1.67;1.10;;;15.40;81.30;;;;;;4917108;29;20084;-75
2022/10/05 01:15:53;;;;;;;1.17;1.00;;;15.40;81.30;;;;;;4916584;29;20048;-75
2022/10/05 01:18:37;;;;;;;1.65;1.15;;;15.40;81.30;;;;;;4917241;29;20040;-75
2022/10/05 01:21:15;;;;;;;1.15;0.90;;;15.40;81.30;;;;;;4917291;29;20119;-75
2022/10/05 01:24:12;;;;;;;1.85;1.20;;;15.40;81.30;;;;;;4914457;29;20372;-75
2022/10/05 01:27:06;;;;;;;2.05;1.20;;;15.40;81.40;;;;;;4914228;29;20046;-75
2022/10/05 01:29:52;;;;;;;1.63;1.15;;;15.40;81.40;;;;;;4916364;29;20052;-75
2022/10/05 01:32:27;;;;;;;2.15;1.30;;;15.40;81.50;;;;;;4915180;29;20539;-76
2022/10/05 01:35:12;;;;;;;1.67;1.30;;;15.30;81.40;;;;;;4915430;29;20071;-75
2022/10/05 01:38:05;;;;;;;2.15;1.13;;;15.30;81.50;;;;;;4916195;29;20040;-75
2022/10/05 01:41:05;;;;;;;2.20;1.40;;;15.40;81.60;;;;;;4915579;29;20478;-75
2022/10/05 01:43:48;;;;;;;1.17;0.98;;;15.40;81.60;;;;;;4916522;29;20048;-76
2022/10/05 01:46:32;;;;;;;1.52;1.10;;;15.40;81.60;;;;;;4916804;29;20036;-75
2022/10/05 01:49:26;;;;;;;2.20;1.17;;;15.30;81.60;;;;;;4916393;29;20119;-75
2022/10/05 01:52:26;;;;;;;1.63;1.02;;;15.30;81.70;;;;;;4916171;29;20036;-74
2022/10/05 01:55:32;;;;;;;3.45;1.40;;;15.30;81.70;;;;;;4916133;29;20064;-75
2022/10/05 01:58:25;;;;;;;1.60;1.10;;;15.40;81.80;;;;;;4890446;29;20056;-75
2022/10/05 02:01:06;;;;;;;1.58;1.10;;;15.30;81.70;;;;;;4901016;29;20123;-75
2022/10/05 02:03:38;;;;;;;1.45;1.15;;;15.40;81.80;;;;;;4916034;29;20091;-76
2022/10/05 02:06:11;;;;;;;1.92;1.30;;;15.30;81.80;;;;;;4916541;29;20044;-75
2022/10/05 02:08:42;;;;;;;1.95;1.35;;;15.30;81.90;;;;;;4916501;29;20495;-75
2022/10/05 02:11:11;;;;;;;1.90;1.33;;;15.20;81.80;;;;;;4897049;29;20380;-75
2022/10/05 02:13:46;;;;;;;1.92;1.30;;;15.30;82.00;;;;;;4915735;29;20102;-75
2022/10/05 02:16:19;;;;;;;1.70;1.33;;;15.20;82.00;;;;;;4916382;29;20032;-74
2022/10/05 02:18:51;;;;;;;2.20;1.50;;;15.20;82.10;;;;;;4914124;29;20459;-74
2022/10/05 02:21:20;;;;;;;2.25;1.60;;;15.20;82.10;;;;;;4916193;29;20040;-74
2022/10/05 02:23:49;;;;;;;2.63;1.70;;;15.20;82.20;;;;;;4916205;29;20067;-75
2022/10/05 02:26:16;;;;;;;2.72;1.70;;;15.20;82.20;;;;;;4898040;29;20483;-74
2022/10/05 02:29:01;;;;;;;2.78;1.67;;;15.20;82.20;;;;;;4915693;29;20044;-75
2022/10/05 02:31:39;;;;;;;3.47;2.22;;;15.20;82.30;;;;;;4915892;29;20047;-75
2022/10/05 02:34:38;;;;;;;3.30;2.00;;;15.10;82.30;;;;;;4915776;29;20028;-75
2022/10/05 02:37:38;;;;;;;2.65;1.80;;;15.10;82.40;;;;;;4913956;29;20035;-75
2022/10/05 02:40:28;;;;;;;3.13;1.88;;;15.10;82.40;;;;;;4913619;29;20044;-75
2022/10/05 02:43:20;;;;;;;2.35;1.65;;;15.00;82.40;;;;;;4915678;29;20494;-74
2022/10/05 02:46:13;;;;;;;2.90;1.60;;;15.10;82.50;;;;;;4913934;29;20036;-75
2022/10/05 02:48:58;;;;;;;2.08;1.35;;;15.10;82.50;;;;;;4913869;29;20044;-75
2022/10/05 02:51:39;;;;;;;2.30;1.50;;;14.90;82.50;;;;;;4897934;29;20491;-74
2022/10/05 02:54:19;;;;;;;;;;;15.00;82.60;;;;;;4913536;29;20042;-75
2022/10/05 02:57:08;;;;;;;2.33;1.45;;;15.00;82.60;;;;;;4912533;29;19907;-75
2022/10/05 02:59:40;;;;;;;2.67;1.70;;;14.90;82.70;;;;;;4913192;29;20398;-75
2022/10/05 03:02:40;;;;;;;1.98;1.55;;;14.90;82.70;;;;;;4915076;29;20055;-75
2022/10/05 03:05:40;;;;;;;2.20;1.42;;;14.90;82.80;;;;;;4915092;29;20040;-75
2022/10/05 03:08:20;;;;;;;2.00;1.55;;;14.90;82.70;;;;;;4913937;29;20036;-75
2022/10/05 03:11:09;;;;;;;2.90;1.80;;;14.90;82.80;;;;;;4915173;29;20046;-75
2022/10/05 03:14:01;;;;;;;1.92;1.50;;;14.90;82.80;;;;;;4915066;29;20052;-75
2022/10/05 03:16:39;;;;;;;3.70;1.67;;;14.90;82.80;;;;;;4915120;29;20032;-75
2022/10/05 03:19:31;;;;;;;2.72;1.60;;;14.90;82.80;;;;;;4915406;29;20100;-74
2022/10/05 03:22:13;;;;;;;2.97;1.80;;;14.90;82.80;;;;;;4915171;29;20059;-74
2022/10/05 03:25:01;;;;;;;3.83;1.52;;;15.00;82.80;;;;;;4915225;29;20040;-75
2022/10/05 03:27:39;;;;;;;1.98;1.45;;;14.80;82.80;;;;;;4912186;29;20115;-74
2022/10/05 03:30:22;;;;;;;2.03;1.42;;;14.90;82.80;;;;;;4897721;29;20196;-75
2022/10/05 03:33:19;;;;;;;1.90;1.50;;;15.00;82.90;;;;;;4914857;29;20475;-75
2022/10/05 03:36:00;;;;;;;1.83;1.55;;;14.90;82.90;;;;;;4914929;29;20132;-75
2022/10/05 03:38:41;;;;;;;2.83;1.60;;;14.90;82.90;;;;;;4915489;29;20558;-75
2022/10/05 03:41:34;;;;;;;2.78;1.70;;;14.90;82.90;;;;;;4915259;29;20059;-74
2022/10/05 03:44:18;;;;;;;2.53;1.70;;;14.90;82.90;;;;;;4912594;29;20036;-74
2022/10/05 03:47:06;;;;;;;3.05;1.75;;;14.90;82.90;;;;;;4915174;29;20044;-75
2022/10/05 03:49:56;;;;;;;4.28;2.10;;;14.90;83.00;;;;;;4914950;29;20495;-75
2022/10/05 03:52:31;;;;;;;2.67;1.80;;;14.90;82.90;;;;;;4914763;29;20521;-75
2022/10/05 03:55:12;;;;;;;3.53;2.05;;;14.90;82.90;;;;;;4914353;29;20068;-74
2022/10/05 03:57:39;;;;;;;;;;;14.90;82.90;;;;;;4899013;29;20040;-74
2022/10/05 04:00:15;;;;;;;2.10;1.40;;;14.90;82.80;;;;;;4918397;29;19953;-75
2022/10/05 04:02:59;;;;;;;4.07;1.95;;;14.90;82.80;;;;;;4916527;29;20032;-75
2022/10/05 04:05:36;;;;;;;2.75;1.67;;;14.90;82.90;;;;;;4916866;29;20054;-75
2022/10/05 04:08:09;;;;;;;2.13;1.55;;;14.90;82.90;;;;;;4918241;29;20440;-75
2022/10/05 04:10:45;;;;;;;2.42;1.60;;;15.00;82.90;;;;;;4915778;29;20071;-75
2022/10/05 04:13:33;;;;;;;2.67;1.58;;;14.90;83.50;;;;;;4918056;29;20115;-75
2022/10/05 04:16:12;;;;;;;2.80;1.70;;;14.90;83.00;;;;;;4916400;29;20036;-75
2022/10/05 04:18:46;;;;;;;1.83;1.45;;;14.90;83.00;;;;;;4918257;29;20033;-75
2022/10/05 04:21:23;;;;;;;1.75;1.23;;;15.00;83.00;;;;;;4916025;29;20509;-74
2022/10/05 04:24:08;;;;;;;1.73;1.25;;;14.90;83.00;;;;;;4917861;29;20044;-75
2022/10/05 04:26:44;;;;;;;1.88;1.40;;;14.90;83.00;;;;;;4914654;29;20491;-75
2022/10/05 04:29:38;;;;;;;2.65;1.60;;;14.90;83.00;;;;;;4917556;29;20491;-75
2022/10/05 04:32:21;;;;;;;1.75;1.23;;;15.00;83.10;;;;;;4917430;29;20044;-75
2022/10/05 04:35:19;;;;;;;2.53;1.60;;;14.90;83.10;;;;;;4901976;29;20063;-75
2022/10/05 04:38:19;;;;;;;2.42;1.60;;;14.90;83.10;;;;;;4917429;29;20463;-75
2022/10/05 04:41:19;;;;;;;1.90;1.35;;;14.90;83.10;;;;;;4916011;29;20083;-75
2022/10/05 04:44:09;;;;;;;2.03;1.48;;;15.00;83.10;;;;;;4915686;29;20063;-75
2022/10/05 04:47:00;;;;;;;1.98;1.50;;;15.00;83.10;;;;;;4914577;29;20035;-75
2022/10/05 04:50:00;;;;;;;2.78;1.48;;;15.00;83.10;;;;;;4917666;29;20063;-75
2022/10/05 04:52:56;;;;;;;2.00;1.40;;;14.90;83.10;;;;;;4917888;29;20086;-75
2022/10/05 04:55:52;;;;;;;2.30;1.50;;;14.90;83.10;;;;;;4914615;29;20033;-76
2022/10/05 04:58:50;;;;;;;2.50;1.48;;;15.00;83.20;;;;;;4915869;29;20099;-76
2022/10/05 05:01:40;;;;;;;1.67;1.40;;;15.00;83.20;;;;;;4917261;29;20047;-76
2022/10/05 05:04:40;;;;;;;2.42;1.55;;;14.90;83.20;;;;;;4898605;29;20484;-76
2022/10/05 05:07:40;;;;;;;2.10;1.40;;;14.90;83.20;;;;;;4898205;29;20045;-76
2022/10/05 05:10:39;;;;;;;2.42;1.55;;;14.90;83.20;;;;;;4898223;29;20051;-76
2022/10/05 05:13:41;;;;;;;2.47;1.50;;;14.90;83.20;;;;;;4897717;29;20057;-76
2022/10/05 05:16:25;;;;;;;2.30;1.63;;;14.90;83.30;;;;;;4898793;29;20063;-77
2022/10/05 05:19:08;;;;;;;1.80;1.35;;;14.90;83.20;;;;;;4898179;29;20116;-76
2022/10/05 05:22:03;;;;;;;1.77;1.30;;;15.00;83.20;;;;;;4898199;29;20089;-76
2022/10/05 05:24:51;;;;;;;1.80;1.42;;;14.90;83.30;;;;;;4898172;29;20132;-76
2022/10/05 05:27:37;;;;;;;1.98;1.40;;;14.90;83.30;;;;;;4897432;29;20131;-75
2022/10/05 05:30:14;;;;;;;3.13;1.63;;;14.90;83.90;;;;;;4898416;29;20044;-75
2022/10/05 05:33:02;;;;;;;1.90;1.40;;;14.90;83.40;;;;;;4898165;29;20041;-77
2022/10/05 05:36:02;;;;;;;3.13;1.80;;;14.90;83.40;;;;;;4912234;29;20510;-76
2022/10/05 05:39:02;;;;;;;2.03;1.40;;;14.90;83.40;;;;;;4914127;29;20483;-77
2022/10/05 05:41:38;;;;;;;2.00;1.50;;;14.90;83.40;;;;;;4913699;29;20655;-77
2022/10/05 05:44:23;;;;;;;2.60;1.63;;;14.90;83.40;;;;;;4917090;29;20067;-76
2022/10/05 05:46:57;;;;;;;2.33;1.70;;;14.90;83.40;;;;;;4900101;29;20483;-76
2022/10/05 05:49:34;;;;;;;2.50;1.70;;;14.90;83.50;;;;;;4914606;29;20079;-77
2022/10/05 05:52:09;;;;;;;3.42;1.90;;;14.80;83.40;;;;;;4898089;29;20091;-77
2022/10/05 05:54:41;;;;;;;2.95;1.92;;;14.80;83.50;;;;;;4916678;29;20044;-76
2022/10/05 05:57:20;;;;;;;2.50;1.70;;;14.80;83.50;;;;;;4916647;29;20045;-77
2022/10/05 06:00:07;;;;;;;3.70;2.00;;;14.80;83.60;;;;;;4916694;29;20451;-77
2022/10/05 06:02:40;;;;;;;2.90;2.00;;;14.80;84.20;;;;;;4916568;29;20124;-77
2022/10/05 06:05:26;;;;;;;2.75;1.92;;;14.80;83.60;;;;;;4914939;29;20471;-76
2022/10/05 06:07:53;;;;;;;2.65;1.88;;;14.80;83.60;;;;;;4916734;29;20459;-75
2022/10/05 06:10:42;;;;;;;2.92;1.83;;;14.80;83.60;;;;;;4914109;29;20108;-75
2022/10/05 06:13:18;;;;;;;3.78;2.08;;;14.80;83.60;;;;;;4916953;29;20048;-75
2022/10/05 06:15:52;;;;;;;3.08;1.90;;;14.80;83.50;;;;;;4916668;29;20036;-76
2022/10/05 06:18:21;;;;;;;2.22;1.50;;;14.80;83.50;;;;;;4916759;29;20356;-76
2022/10/05 06:21:00;;;;;;;2.22;1.50;;;14.90;83.50;;;;;;4915943;29;20048;-76
2022/10/05 06:23:39;;;;;;;2.67;1.60;;;14.80;83.40;;;;;;4916377;29;20448;-75
2022/10/05 06:26:27;;;;;;;2.35;1.50;;;14.90;83.50;;;;;;4913479;29;20047;-76
2022/10/05 06:29:00;;;;;;;2.65;1.60;;;14.90;83.40;;;;;;4916276;29;20086;-76
2022/10/05 06:31:59;;;;;;;2.40;1.50;;;15.00;83.40;;;;;;4916391;29;20040;-76
2022/10/05 06:34:48;;;;;;;1.55;1.13;;;14.90;83.40;;;;;;4915804;29;20511;-76
2022/10/05 06:37:31;;;;;;;1.88;1.20;;;14.90;83.30;;;;;;4914555;29;20044;-76
2022/10/05 06:40:19;;;;;;;1.17;1.08;;;14.90;83.30;;;;;;4916089;29;20087;-75
2022/10/05 06:47:22;;;;;;;1.27;1.00;;;14.90;83.40;;;;;;4853091;29;20735;-77
2022/10/05 07:16:04;;;;;;;1.02;0.93;;;15.00;83.20;;;;;;4762003;30;20109;-76
2022/10/05 07:22:22;;;;;;;1.45;1.10;;;15.00;83.20;;;;;;4766197;30;20059;-74
2022/10/05 08:04:35;;;;;;;1.48;1.02;;;15.20;83.00;;;;;;4759378;30;20166;-73
2022/10/05 08:15:09;;;;;;;3.13;1.20;;;15.30;82.80;;;;;;4783968;30;20097;-77
2022/10/05 08:56:38;;;;;;;1.33;1.08;;;16.10;81.40;;;;;;5088773;23;20498;-76
2022/10/05 08:59:28;;;;;;;1.23;1.00;;;16.10;81.30;;;;;;4900045;29;20049;-75
2022/10/05 09:20:49;;;;;;;2.33;1.30;;;16.50;81.00;;;;;;4798079;29;20069;-74
2022/10/05 09:27:04;;;;;;;2.05;1.10;;;16.60;80.80;;;;;;4687328;30;20053;-76
2022/10/05 09:30:10;;;;;;;1.85;1.10;;;16.70;80.80;;;;;;4684045;30;20141;-76
2022/10/05 09:33:33;;;;;;;2.33;1.30;;;16.80;80.70;;;;;;4708161;30;20058;-75
2022/10/05 09:44:30;;;;;;;1.75;1.20;;;16.90;80.50;;;;;;4688320;30;20062;-76
2022/10/05 10:11:58;;;;;;;1.63;1.20;;;17.30;80.00;;;;;;4669573;30;20646;-78
2022/10/05 10:18:45;;;;;;;2.22;1.50;;;17.50;79.80;;;;;;4728695;30;20045;-76
2022/10/05 10:22:31;;;;;;;2.05;1.60;;;17.50;79.50;;;;;;4694792;30;20117;-76
2022/10/05 10:25:49;;;;;;;1.85;1.23;;;17.60;79.40;;;;;;4704458;30;20045;-75
2022/10/05 10:35:48;;;;;;;2.65;1.30;;;17.90;78.90;;;;;;4677924;30;20502;-76
2022/10/05 10:38:57;;;;;;;1.73;1.40;;;17.90;78.90;;;;;;4675045;30;20058;-75
2022/10/05 10:52:34;;;;;;;1.73;1.08;;;18.20;78.70;;;;;;4628847;30;20686;-78
2022/10/05 10:55:24;;;;;;;2.25;0.98;;;18.20;78.60;;;;;;4705333;30;20035;-75
2022/10/05 10:58:11;;;;;;;1.30;0.90;;;18.30;79.30;;;;;;4784247;30;20122;-75
2022/10/05 11:08:51;;;;;;;1.25;0.98;;;18.30;78.70;;;;;;4781196;30;20533;-76
2022/10/05 11:12:25;;;;;;;3.13;1.33;;;18.30;78.70;;;;;;4844468;29;20061;-75
2022/10/05 11:15:59;;;;;;;1.40;1.30;;;18.30;78.60;;;;;;4822389;29;20050;-74
2022/10/05 11:18:47;;;;;;;2.03;1.35;;;18.30;78.60;;;;;;4767769;30;20044;-72
2022/10/05 11:21:30;;;;;;;1.30;1.17;;;18.20;78.30;;;;;;4738327;30;20130;-75
2022/10/05 11:39:35;;;;;;;1.63;1.20;;;18.40;78.10;;;;;;4616768;31;20579;-75
2022/10/05 12:56:13;;;;;;;1.05;0.80;;;19.70;76.20;;;;;;4729852;30;20629;-75
2022/10/05 13:03:07;;;;;;;1.02;0.93;;;19.80;76.30;;;;;;4715710;30;20072;-75
2022/10/05 13:06:34;;;;;;;2.05;1.00;;;19.90;75.70;;;;;;4714248;30;20135;-76
2022/10/05 14:00:30;;;;;;;0.55;0.55;;;20.20;75.50;;;;;;4790179;29;20513;-76
2022/10/05 14:03:58;;;;;;;0.60;0.60;;;20.40;75.20;;;;;;4840876;29;20058;-76
2022/10/05 14:06:58;;;;;;;0.90;0.60;;;20.40;75.10;;;;;;4765701;30;20107;-76
2022/10/05 14:10:18;;;;;;;0.80;0.75;;;20.50;75.10;;;;;;4751865;30;20066;-76
2022/10/05 14:16:36;;;;;;;0.82;0.60;;;20.60;75.00;;;;;;4693336;30;20426;-74
2022/10/05 14:19:55;;;;;;;0.75;0.50;;;20.60;75.00;;;;;;4692503;30;20045;-75
2022/10/05 14:26:37;;;;;;;0.77;0.70;;;20.50;75.20;;;;;;4678846;30;20064;-76
2022/10/05 14:37:01;;;;;;;0.75;0.60;;;20.10;75.80;;;;;;4671350;30;20085;-76
2022/10/05 14:39:58;;;;;;;;;;;20.10;75.80;;;;;;4671030;30;20065;-75
2022/10/05 14:50:45;;;;;;;1.08;0.70;;;19.90;76.10;;;;;;4685748;30;20623;-76
2022/10/05 14:53:56;;;;;;;0.98;0.70;;;19.90;76.20;;;;;;4640550;30;20499;-73
2022/10/05 15:07:40;;;;;;;0.80;0.73;;;19.80;76.10;;;;;;4678358;30;20077;-75
2022/10/05 15:10:27;;;;;;;0.73;0.70;;;19.80;76.10;;;;;;4678877;30;20050;-76
2022/10/05 15:12:57;;;;;;;1.23;0.80;;;19.70;76.10;;;;;;4678727;30;20034;-76
2022/10/05 15:15:32;;;;;;;0.70;0.57;;;19.70;76.10;;;;;;4678823;30;20074;-75
2022/10/05 15:18:04;;;;;;;1.27;0.60;;;19.60;76.10;;;;;;4693986;30;20041;-75
2022/10/05 15:20:42;;;;;;;1.42;0.93;;;19.60;76.60;;;;;;4714697;30;20122;-76
2022/10/05 15:23:23;;;;;;;0.73;0.60;;;19.50;76.30;;;;;;4749437;29;20052;-76
2022/10/05 15:26:00;;;;;;;0.60;0.60;;;19.50;76.50;;;;;;4838637;29;20467;-76
2022/10/05 15:28:53;;;;;;;2.08;0.80;;;19.40;76.50;;;;;;4915706;29;20051;-76
2022/10/05 15:31:50;;;;;;;1.33;0.80;;;19.30;76.50;;;;;;4914647;29;20140;-76
2022/10/05 15:34:21;;;;;;;1.10;0.90;;;19.30;76.40;;;;;;4914831;29;20087;-74
2022/10/05 15:37:09;;;;;;;0.98;0.80;;;19.30;76.30;;;;;;4898189;29;20380;-75
2022/10/05 16:31:06;;;;;;;0.95;0.68;;;18.10;76.40;;;;;;4696877;30;20088;-75
2022/10/05 16:48:38;;;;;;;1.08;0.63;;;17.90;76.20;;;;;;4628500;30;20094;-75
2022/10/05 17:05:02;;;;;;;0.82;0.80;;;17.60;75.90;;;;;;5755785;23;20139;-75
2022/10/05 17:11:24;;;;;;;1.30;0.90;;;17.70;75.90;;;;;;4887285;29;20053;-76
2022/10/05 17:14:19;;;;;;;3.58;0.90;;;17.60;75.80;;;;;;4890734;29;20074;-76
2022/10/05 17:27:55;;;;;;;1.42;0.70;;;17.50;75.30;;;;;;4895641;29;20047;-79
2022/10/05 17:30:57;;;;;;;1.48;0.82;;;17.60;75.50;;;;;;4900284;29;20040;-79
2022/10/05 17:33:29;;;;;;;1.58;0.85;;;17.50;75.40;;;;;;4899331;29;20039;-79
2022/10/05 17:36:14;;;;;;;0.68;0.68;;;17.60;75.40;;;;;;4884294;29;20040;-79
2022/10/05 17:39:11;;;;;;;0.90;0.80;;;17.50;75.30;;;;;;4897270;29;20488;-79
2022/10/05 17:41:37;;;;;;;1.60;1.02;;;17.50;75.30;;;;;;4916353;29;20123;-79
2022/10/05 17:44:23;;;;;;;1.52;1.00;;;17.60;75.30;;;;;;4884074;29;20095;-79
2022/10/05 17:46:54;;;;;;;1.23;0.90;;;17.60;75.30;;;;;;4916304;29;20051;-79
2022/10/05 17:49:46;;;;;;;2.28;1.00;;;17.60;75.30;;;;;;4899802;29;20036;-78
2022/10/05 17:55:24;;;;;;;1.00;0.90;;;17.60;75.30;;;;;;4916296;29;20155;-80
2022/10/05 18:12:23;;;;;;;0.98;0.88;;;17.60;75.10;;;;;;4830505;29;20143;-75
2022/10/05 18:15:24;;;;;;;1.40;1.08;;;17.60;75.00;;;;;;4842781;29;20143;-75
2022/10/05 18:17:53;;;;;;;1.23;0.90;;;17.60;75.00;;;;;;4827837;29;20121;-75
2022/10/05 18:20:34;;;;;;;1.58;1.13;;;17.60;74.90;;;;;;4826594;29;20540;-75
2022/10/05 18:23:25;;;;;;;2.05;1.00;;;17.60;75.00;;;;;;4845827;29;20049;-75
2022/10/05 18:26:12;;;;;;;1.88;0.90;;;17.70;75.00;;;;;;4830829;29;20578;-75
2022/10/05 18:32:30;;;;;;;0.98;0.88;;;17.70;75.00;;;;;;4837659;29;20539;-76
2022/10/05 18:46:23;;;;;;;1.02;0.90;;;17.70;74.90;;;;;;4785041;29;20070;-77
2022/10/05 19:26:01;;;;;;;1.27;0.98;;;17.90;74.70;;;;;;4597463;31;20071;-76
2022/10/05 19:29:06;;;;;;;1.02;0.90;;;17.80;74.80;;;;;;4574905;31;20056;-76
2022/10/05 19:31:48;;;;;;;1.80;0.93;;;17.90;74.80;;;;;;4611219;31;20136;-76
2022/10/05 19:34:39;;;;;;;2.17;1.20;;;17.90;74.90;;;;;;4592737;31;20144;-76
2022/10/05 19:37:25;;;;;;;1.33;0.88;;;17.90;74.90;;;;;;4591004;31;20045;-76
2022/10/05 19:43:44;;;;;;;1.43;1.00;;;17.90;75.00;;;;;;4598764;31;20127;-76
2022/10/05 19:46:44;;;;;;;1.27;1.00;;;18.00;75.10;;;;;;4598609;31;20063;-77
2022/10/05 19:49:10;;;;;;;2.17;1.00;;;18.00;75.10;;;;;;4591559;31;20075;-76
2022/10/05 19:52:20;;;;;;;1.40;1.20;;;18.00;75.10;;;;;;4669530;30;20068;-76
2022/10/05 19:56:24;;;;;;;1.30;1.05;;;18.00;75.10;;;;;;4699300;30;20061;-77
2022/10/05 20:05:12;;;;;;;1.83;1.15;;;18.00;75.50;;;;;;4668710;30;20066;-76
2022/10/05 20:07:38;;;;;;;2.60;1.20;;;18.00;75.60;;;;;;4664156;30;20062;-76
2022/10/05 20:10:23;;;;;;;1.10;0.90;;;17.90;75.70;;;;;;4664077;30;20549;-76
2022/10/05 20:12:52;;;;;;;1.92;1.20;;;17.90;75.90;;;;;;4668573;30;20045;-76
2022/10/05 20:21:46;;;;;;;1.58;0.90;;;17.90;76.20;;;;;;4763918;30;20190;-74
2022/10/05 20:28:02;;;;;;;1.17;0.73;;;17.80;76.40;;;;;;4732827;30;20051;-76
2022/10/05 20:30:30;;;;;;;1.00;0.65;;;17.90;76.50;;;;;;4751025;30;20511;-77
2022/10/05 20:32:58;;;;;;;1.10;0.90;;;17.80;76.50;;;;;;4753778;30;20384;-75
2022/10/05 20:35:32;;;;;;;1.60;0.90;;;17.80;76.60;;;;;;4768922;30;20051;-76
2022/10/05 20:38:53;;;;;;;1.17;0.70;;;17.80;76.80;;;;;;4755630;30;20040;-76
2022/10/05 20:41:34;;;;;;;1.55;0.80;;;17.80;76.90;;;;;;4773674;29;20079;-76
2022/10/05 20:55:00;;;;;;;0.55;0.40;;;17.40;77.30;;;;;;4775966;29;21113;-77
2022/10/05 20:57:40;;;;;;;0.35;0.35;;;17.10;77.70;;;;;;4787801;29;20054;-76
2022/10/05 21:00:10;;;;;;;0.40;0.20;;;16.90;78.00;;;;;;4790939;29;20449;-76
2022/10/05 21:02:42;;;;;;;0.40;0.40;;;16.60;78.30;;;;;;4776915;29;20045;-78
2022/10/05 21:05:10;;;;;;;0.85;0.32;;;16.50;78.60;;;;;;4809075;29;20042;-77
2022/10/05 21:07:39;;;;;;;0.93;0.57;;;16.30;79.00;;;;;;4812962;29;20038;-76
2022/10/05 21:10:05;;;;;;;0.85;0.30;;;16.00;79.50;;;;;;4811692;29;20047;-76
2022/10/05 21:12:33;;;;;;;0.30;0.30;;;15.70;80.10;;;;;;4789471;29;20039;-78
2022/10/05 21:51:01;;;;;;;1.38;0.20;;;14.90;81.90;;;;;;4860133;29;20055;-75
2022/10/05 21:53:34;;;;;;;0.25;0.20;;;14.80;81.80;;;;;;4860157;29;20033;-76
2022/10/05 21:56:02;;;;;;;0.10;0.10;;;14.90;82.00;;;;;;4860083;29;20044;-76
2022/10/05 21:58:29;;;;;;;0.10;0.10;;;14.90;82.10;;;;;;4848572;29;20488;-76
2022/10/05 22:00:54;;;;;;;0.52;0.28;;;14.90;82.10;;;;;;4897154;29;20048;-76
2022/10/05 22:03:20;;;;;;;0.20;0.20;;;14.80;82.10;;;;;;4897106;29;20044;-76
2022/10/05 22:05:46;;;;;;;0.52;0.20;;;14.80;82.30;;;;;;4897087;29;20040;-76
2022/10/05 22:08:25;;;;;;;0.95;0.20;;;14.80;82.40;;;;;;4880413;29;20041;-76
2022/10/05 22:10:53;;;;;;;0.10;0.10;;;14.90;82.50;;;;;;4880445;29;20139;-76
2022/10/05 22:13:22;;;;;;;0.22;0.20;;;14.80;82.50;;;;;;4859579;29;20041;-76
2022/10/05 22:15:48;;;;;;;0.43;0.20;;;14.80;82.50;;;;;;4874420;29;20037;-76
2022/10/05 22:18:17;;;;;;;0.10;0.10;;;14.70;82.60;;;;;;4875380;29;20515;-77
2022/10/05 22:20:44;;;;;;;0.10;0.10;;;14.70;82.70;;;;;;4874604;29;20046;-77
2022/10/05 22:23:10;;;;;;;0.20;0.20;;;14.70;82.80;;;;;;4882332;29;20093;-76
2022/10/05 22:25:36;;;;;;;0.20;0.10;;;14.80;82.80;;;;;;4881726;29;20053;-77
2022/10/05 22:28:02;;;;;;;0.88;0.28;;;14.80;82.80;;;;;;4864940;29;20054;-77
2022/10/05 22:30:28;;;;;;;0.10;0.10;;;14.70;82.90;;;;;;4880692;29;20056;-76
2022/10/05 22:32:54;;;;;;;0.20;0.20;;;14.80;83.00;;;;;;4881239;29;20512;-77
2022/10/05 22:35:20;;;;;;;0.20;0.20;;;14.70;83.10;;;;;;4875688;29;20047;-77
2022/10/05 22:37:45;;;;;;;0.90;0.30;;;14.70;83.10;;;;;;4880605;29;20022;-77
2022/10/05 22:40:11;;;;;;;0.10;0.10;;;14.60;83.20;;;;;;4880379;29;20038;-77
2022/10/05 22:42:37;;;;;;;0.20;0.20;;;14.60;83.30;;;;;;4869011;29;20038;-77
2022/10/05 22:45:05;;;;;;;0.50;0.10;;;14.60;84.00;;;;;;4881785;29;20094;-77
2022/10/05 22:47:31;;;;;;;0.20;0.20;;;14.60;83.40;;;;;;4881152;29;20028;-77
2022/10/05 22:49:57;;;;;;;2.20;0.30;;;14.50;83.40;;;;;;4879385;29;20046;-77
2022/10/05 22:52:23;;;;;;;0.57;0.20;;;14.50;83.50;;;;;;4882448;29;20053;-77
2022/10/05 22:54:49;;;;;;;1.13;0.40;;;14.50;83.60;;;;;;4880034;29;20504;-77
2022/10/05 22:57:15;;;;;;;0.25;0.20;;;14.40;83.60;;;;;;4878280;29;20084;-77
2022/10/05 22:59:40;;;;;;;0.10;0.10;;;14.50;83.90;;;;;;4880401;29;20017;-78
2022/10/05 23:02:06;;;;;;;0.47;0.20;;;14.40;83.90;;;;;;4879455;29;20029;-78
2022/10/05 23:04:32;;;;;;;0.20;0.20;;;14.40;84.00;;;;;;4876373;29;20050;-77
2022/10/05 23:06:58;;;;;;;0.20;0.20;;;14.30;84.00;;;;;;4877669;29;20058;-78
2022/10/05 23:09:23;;;;;;;0.28;0.28;;;14.30;84.00;;;;;;4877253;29;20033;-78
2022/10/05 23:11:52;;;;;;;0.10;0.10;;;14.30;84.10;;;;;;4878847;29;20568;-77
2022/10/05 23:14:19;;;;;;;0.47;0.30;;;14.30;84.10;;;;;;4878865;29;20048;-77
2022/10/05 23:16:44;;;;;;;0.20;0.20;;;14.30;84.10;;;;;;4861199;29;20034;-78
2022/10/05 23:19:11;;;;;;;0.40;0.15;;;14.30;84.10;;;;;;4849461;29;20024;-78
2022/10/05 23:21:37;;;;;;;0.30;0.22;;;14.20;84.00;;;;;;4879967;29;20132;-77
2022/10/05 23:24:03;;;;;;;0.20;0.20;;;14.30;84.10;;;;;;4896624;29;20053;-77
2022/10/05 23:26:30;;;;;;;0.20;0.20;;;14.20;84.10;;;;;;4871744;29;20109;-77
2022/10/05 23:28:57;;;;;;;0.85;0.10;;;14.20;84.10;;;;;;4860373;29;20392;-77
2022/10/05 23:31:27;;;;;;;0.80;0.30;;;14.20;84.10;;;;;;4860110;29;20098;-78
2022/10/05 23:33:53;;;;;;;0.30;0.30;;;14.20;84.10;;;;;;4859603;29;20120;-78
2022/10/05 23:36:22;;;;;;;0.73;0.30;;;14.20;84.10;;;;;;4859964;29;20049;-77
2022/10/05 23:38:49;;;;;;;0.45;0.30;;;14.20;84.20;;;;;;4861884;29;20048;-77
2022/10/05 23:41:15;;;;;;;0.50;0.30;;;14.20;84.20;;;;;;4876938;29;20060;-77
2022/10/05 23:43:42;;;;;;;0.20;0.20;;;14.10;84.10;;;;;;4880594;29;20030;-76
2022/10/05 23:46:08;;;;;;;0.85;0.30;;;14.10;84.10;;;;;;4872676;29;20049;-77
2022/10/05 23:48:38;;;;;;;0.63;0.20;;;14.20;84.10;;;;;;4858340;29;21014;-77
2022/10/05 23:51:05;;;;;;;0.55;0.20;;;14.20;84.20;;;;;;4860447;29;20492;-77
2022/10/05 23:53:31;;;;;;;0.55;0.20;;;14.10;84.20;;;;;;4859733;29;20049;-77
2022/10/05 23:55:58;;;;;;;0.50;0.30;;;14.10;84.10;;;;;;4859641;29;20070;-77
2022/10/05 23:58:24;;;;;;;0.30;0.30;;;14.10;84.20;;;;;;4827664;29;20034;-77
